createdAt,value
2023-02-01T00:01:37.841Z,100.00
2023-02-01T00:04:06.600Z,100.00
2023-02-01T00:06:34.813Z,100.00
2023-02-01T00:09:03.297Z,100.00
2023-02-01T00:11:31.616Z,100.00
2023-02-01T00:14:00.037Z,100.00
2023-02-01T00:16:32.052Z,100.00
2023-02-01T00:19:03.463Z,100.00
2023-02-01T00:21:32.550Z,100.00
2023-02-01T00:24:01.326Z,100.00
2023-02-01T00:26:55.304Z,100.00
2023-02-01T00:29:24.297Z,100.00
2023-02-01T00:31:54.207Z,100.00
2023-02-01T00:34:23.381Z,100.00
2023-02-01T00:36:52.201Z,100.00
2023-02-01T00:39:20.459Z,100.00
2023-02-01T00:41:48.717Z,100.00
2023-02-01T00:44:17.142Z,100.00
2023-02-01T00:46:45.457Z,100.00
2023-02-01T00:49:15.053Z,100.00
2023-02-01T00:51:43.283Z,100.00
2023-02-01T00:54:11.457Z,100.00
2023-02-01T00:56:39.676Z,100.00
2023-02-01T00:59:07.866Z,100.00
2023-02-01T01:01:36.461Z,100.00
2023-02-01T01:04:35.211Z,100.00
2023-02-01T01:07:04.261Z,100.00
2023-02-01T01:09:32.456Z,100.00
2023-02-01T01:12:03.455Z,100.00
2023-02-01T01:14:33.171Z,100.00
2023-02-01T01:17:25.092Z,100.00
2023-02-01T01:19:54.687Z,100.00
2023-02-01T01:22:23.013Z,100.00
2023-02-01T01:24:51.366Z,100.00
2023-02-01T01:27:24.381Z,100.00
2023-02-01T01:29:52.673Z,100.00
2023-02-01T01:32:20.894Z,100.00
2023-02-01T01:34:49.106Z,100.00
2023-02-01T01:37:18.671Z,100.00
2023-02-01T01:39:46.894Z,100.00
2023-02-01T01:42:15.170Z,100.00
2023-02-01T01:45:05.726Z,100.00
2023-02-01T01:47:40.871Z,100.00
2023-02-01T01:50:12.557Z,100.00
2023-02-01T01:52:45.011Z,100.00
2023-02-01T01:55:15.322Z,100.00
2023-02-01T01:57:47.716Z,100.00
2023-02-01T02:00:20.681Z,100.00
2023-02-01T02:03:06.054Z,100.00
2023-02-01T02:05:34.287Z,100.00
2023-02-01T02:08:03.938Z,100.00
2023-02-01T02:10:47.387Z,100.00
2023-02-01T02:13:16.773Z,100.00
2023-02-01T02:15:53.993Z,100.00
2023-02-01T02:18:30.483Z,100.00
2023-02-01T02:21:14.788Z,100.00
2023-02-01T02:24:23.893Z,100.00
2023-02-01T02:27:23.965Z,100.00
2023-02-01T02:30:43.001Z,100.00
2023-02-01T02:33:44.160Z,100.00
2023-02-01T02:36:19.960Z,100.00
2023-02-01T02:39:02.069Z,100.00
2023-02-01T02:41:55.680Z,100.00
2023-02-01T02:44:51.346Z,100.00
2023-02-01T02:47:28.820Z,100.00
2023-02-01T02:50:24.765Z,100.00
2023-02-01T02:53:18.798Z,100.00
2023-02-01T02:55:47.958Z,100.00
2023-02-01T02:58:35.755Z,100.00
2023-02-01T03:01:23.337Z,100.00
2023-02-01T03:04:09.791Z,100.00
2023-02-01T03:06:41.914Z,100.00
2023-02-01T03:09:17.807Z,100.00
2023-02-01T03:12:07.810Z,100.00
2023-02-01T03:14:38.604Z,100.00
2023-02-01T03:17:14.071Z,100.00
2023-02-01T03:19:50.299Z,100.00
2023-02-01T03:22:25.829Z,100.00
2023-02-01T03:24:58.756Z,100.00
2023-02-01T03:27:34.553Z,100.00
2023-02-01T03:30:10.597Z,100.00
2023-02-01T03:32:56.070Z,100.00
2023-02-01T03:35:30.862Z,100.00
2023-02-01T03:38:09.186Z,100.00
2023-02-01T03:40:41.738Z,100.00
2023-02-01T03:43:16.068Z,100.00
2023-02-01T03:45:47.378Z,100.00
2023-02-01T03:48:16.979Z,100.00
2023-02-01T03:50:50.696Z,100.00
2023-02-01T03:53:24.480Z,100.00
2023-02-01T03:55:54.553Z,100.00
2023-02-01T03:58:24.939Z,100.00
2023-02-01T04:00:56.166Z,100.00
2023-02-01T04:03:25.901Z,100.00
2023-02-01T04:05:55.118Z,100.00
2023-02-01T04:08:28.572Z,100.00
2023-02-01T04:10:56.757Z,100.00
2023-02-01T04:13:24.948Z,100.00
2023-02-01T04:15:53.122Z,100.00
2023-02-01T04:18:21.332Z,100.00
2023-02-01T04:20:49.907Z,100.00
2023-02-01T04:23:18.091Z,100.00
2023-02-01T04:25:47.722Z,100.00
2023-02-01T04:28:16.329Z,100.00
2023-02-01T04:30:44.610Z,100.00
2023-02-01T04:33:14.973Z,100.00
2023-02-01T04:35:43.405Z,100.00
2023-02-01T04:38:11.611Z,100.00
2023-02-01T04:40:39.830Z,100.00
2023-02-01T04:43:09.447Z,100.00
2023-02-01T04:45:37.673Z,100.00
2023-02-01T04:48:06.729Z,100.00
2023-02-01T04:50:34.903Z,100.00
2023-02-01T04:53:03.191Z,100.00
2023-02-01T04:55:31.705Z,100.00
2023-02-01T04:58:00.016Z,100.00
2023-02-01T05:00:29.701Z,100.00
2023-02-01T05:05:50.554Z,100.00
2023-02-01T05:08:18.750Z,100.00
2023-02-01T05:10:47.454Z,100.00
2023-02-01T05:13:29.579Z,100.00
2023-02-01T05:15:59.172Z,100.00
2023-02-01T05:18:27.415Z,100.00
2023-02-01T05:20:55.624Z,100.00
2023-02-01T05:23:23.820Z,100.00
2023-02-01T05:25:51.996Z,100.00
2023-02-01T05:28:20.211Z,100.00
2023-02-01T05:30:49.195Z,100.00
2023-02-01T05:33:18.811Z,100.00
2023-02-01T05:35:46.961Z,100.00
2023-02-01T05:38:15.535Z,100.00
2023-02-01T05:40:43.705Z,100.00
2023-02-01T05:43:11.926Z,100.00
2023-02-01T05:45:40.104Z,100.00
2023-02-01T05:48:08.303Z,100.00
2023-02-01T05:50:37.862Z,100.00
2023-02-01T05:53:10.746Z,100.00
2023-02-01T05:55:39.374Z,100.00
2023-02-01T05:58:07.788Z,100.00
2023-02-01T06:00:36.027Z,100.00
2023-02-01T06:03:04.508Z,100.00
2023-02-01T06:05:40.193Z,100.00
2023-02-01T06:08:08.592Z,100.00
2023-02-01T06:10:36.837Z,100.00
2023-02-01T06:13:05.207Z,100.00
2023-02-01T06:15:33.563Z,100.00
2023-02-01T06:18:01.794Z,100.00
2023-02-01T06:20:29.954Z,100.00
2023-02-01T06:22:59.479Z,100.00
2023-02-01T06:25:27.686Z,100.00
2023-02-01T06:27:55.891Z,100.00
2023-02-01T06:30:24.319Z,100.00
2023-02-01T06:32:54.874Z,100.00
2023-02-01T06:35:23.064Z,100.00
2023-02-01T06:37:51.228Z,100.00
2023-02-01T06:40:21.372Z,100.00
2023-02-01T06:42:51.185Z,100.00
2023-02-01T06:45:19.669Z,100.00
2023-02-01T06:47:48.426Z,100.00
2023-02-01T06:50:17.606Z,100.00
2023-02-01T06:52:45.865Z,100.00
2023-02-01T06:55:14.401Z,100.00
2023-02-01T06:57:44.276Z,100.00
2023-02-01T07:00:13.963Z,100.00
2023-02-01T07:02:42.250Z,100.00
2023-02-01T07:05:14.056Z,100.00
2023-02-01T07:07:43.268Z,100.00
2023-02-01T07:10:12.915Z,100.00
2023-02-01T07:12:41.280Z,100.00
2023-02-01T07:15:12.252Z,100.00
2023-02-01T07:17:40.501Z,100.00
2023-02-01T07:20:10.844Z,100.00
2023-02-01T07:22:39.038Z,100.00
2023-02-01T07:25:08.711Z,100.00
2023-02-01T07:27:37.118Z,100.00
2023-02-01T07:30:07.052Z,100.00
2023-02-01T07:32:36.762Z,100.00
2023-02-01T07:35:05.363Z,100.00
2023-02-01T07:37:33.575Z,100.00
2023-02-01T07:40:01.762Z,100.00
2023-02-01T07:42:29.942Z,100.00
2023-02-01T07:45:07.862Z,100.00
2023-02-01T07:47:44.451Z,100.00
2023-02-01T07:50:12.944Z,100.00
2023-02-01T07:52:41.722Z,100.00
2023-02-01T07:55:11.151Z,100.00
2023-02-01T07:57:47.183Z,100.00
2023-02-01T08:00:34.656Z,100.00
2023-02-01T08:03:06.513Z,100.00
2023-02-01T08:05:34.709Z,100.00
2023-02-01T08:08:02.964Z,100.00
2023-02-01T08:10:31.151Z,100.00
2023-02-01T08:13:01.904Z,100.00
2023-02-01T08:15:31.056Z,100.00
2023-02-01T08:17:59.653Z,100.00
2023-02-01T08:20:29.333Z,100.00
2023-02-01T08:22:57.566Z,100.00
2023-02-01T08:25:26.549Z,100.00
2023-02-01T08:27:55.387Z,100.00
2023-02-01T08:30:24.159Z,100.00
2023-02-01T08:32:52.580Z,100.00
2023-02-01T08:35:22.295Z,100.00
2023-02-01T08:37:53.502Z,100.00
2023-02-01T08:40:22.869Z,100.00
2023-02-01T08:42:54.854Z,100.00
2023-02-01T08:45:26.208Z,100.00
2023-02-01T08:47:55.169Z,100.00
2023-02-01T08:50:25.670Z,100.00
2023-02-01T08:52:56.035Z,99.24
2023-02-01T08:55:24.282Z,99.38
2023-02-01T08:57:52.575Z,98.66
2023-02-01T09:00:21.428Z,98.90
2023-02-01T09:02:49.942Z,98.27
2023-02-01T09:05:20.213Z,97.97
2023-02-01T09:07:49.176Z,97.00
2023-02-01T09:10:33.424Z,97.92
2023-02-01T09:13:04.039Z,96.61
2023-02-01T09:15:33.632Z,96.91
2023-02-01T09:18:02.199Z,97.16
2023-02-01T09:20:30.511Z,96.09
2023-02-01T09:22:58.841Z,96.65
2023-02-01T09:25:28.548Z,97.53
2023-02-01T09:27:56.742Z,96.16
2023-02-01T09:30:25.490Z,97.02
2023-02-01T09:32:53.939Z,97.88
2023-02-01T09:35:22.085Z,97.05
2023-02-01T09:37:50.327Z,96.63
2023-02-01T09:40:19.384Z,97.32
2023-02-01T09:43:04.485Z,95.99
2023-02-01T09:45:42.257Z,96.94
2023-02-01T09:48:17.560Z,96.82
2023-02-01T09:50:51.746Z,96.30
2023-02-01T09:53:32.244Z,97.61
2023-02-01T09:56:07.401Z,98.35
2023-02-01T09:58:41.533Z,99.44
2023-02-01T10:01:20.377Z,99.64
2023-02-01T10:03:49.191Z,99.29
2023-02-01T10:06:38.770Z,99.57
2023-02-01T10:09:36.179Z,100.00
2023-02-01T10:12:40.292Z,98.92
2023-02-01T10:15:27.341Z,98.50
2023-02-01T10:18:18.348Z,98.45
2023-02-01T10:20:59.585Z,98.03
2023-02-01T10:23:53.351Z,97.52
2023-02-01T10:26:24.348Z,98.09
2023-02-01T10:28:55.440Z,98.13
2023-02-01T10:31:28.867Z,97.71
2023-02-01T10:34:06.443Z,97.32
2023-02-01T10:36:38.155Z,96.42
2023-02-01T10:39:08.849Z,96.15
2023-02-01T10:41:40.073Z,95.94
2023-02-01T10:44:15.411Z,95.31
2023-02-01T10:46:45.028Z,94.91
2023-02-01T10:49:20.504Z,94.85
2023-02-01T10:51:54.011Z,95.47
2023-02-01T10:54:24.929Z,95.76
2023-02-01T10:56:54.348Z,94.54
2023-02-01T10:59:27.579Z,94.32
2023-02-01T11:02:20.723Z,94.50
2023-02-01T11:04:49.102Z,95.03
2023-02-01T11:07:26.794Z,93.45
2023-02-01T11:09:57.435Z,94.10
2023-02-01T11:12:32.540Z,94.36
2023-02-01T11:15:16.528Z,93.75
2023-02-01T11:17:48.468Z,94.33
2023-02-01T11:20:20.167Z,94.38
2023-02-01T11:22:50.384Z,98.18
2023-02-01T11:25:19.762Z,100.00
2023-02-01T11:27:54.766Z,99.18
2023-02-01T11:30:34.300Z,100.00
2023-02-01T11:33:06.918Z,99.72
2023-02-01T11:35:40.230Z,100.00
2023-02-01T11:38:22.831Z,99.60
2023-02-01T11:40:51.770Z,98.85
2023-02-01T11:43:26.662Z,98.35
2023-02-01T11:46:01.809Z,95.59
2023-02-01T11:48:33.471Z,94.48
2023-02-01T11:51:36.601Z,93.86
2023-02-01T11:54:34.003Z,92.63
2023-02-01T11:57:19.556Z,93.00
2023-02-01T12:00:26.113Z,91.34
2023-02-01T12:03:55.012Z,91.44
2023-02-01T12:06:33.433Z,90.48
2023-02-01T12:09:27.244Z,89.45
2023-02-01T12:12:05.529Z,89.24
2023-02-01T12:14:53.619Z,88.92
2023-02-01T12:17:54.403Z,88.49
2023-02-01T12:21:12.313Z,89.19
2023-02-01T12:24:11.868Z,88.33
2023-02-01T12:27:00.361Z,89.96
2023-02-01T12:29:50.734Z,89.65
2023-02-01T12:32:39.012Z,89.03
2023-02-01T12:35:39.959Z,89.23
2023-02-01T12:38:27.951Z,88.16
2023-02-01T12:41:12.001Z,89.36
2023-02-01T12:43:47.750Z,89.77
2023-02-01T12:46:23.573Z,90.67
2023-02-01T12:48:58.807Z,89.54
2023-02-01T12:51:31.651Z,91.63
2023-02-01T12:54:07.114Z,93.05
2023-02-01T12:56:42.105Z,95.59
2023-02-01T12:59:21.871Z,96.72
2023-02-01T13:01:59.971Z,99.98
2023-02-01T13:04:34.330Z,99.09
2023-02-01T13:07:10.919Z,100.00
2023-02-01T13:09:48.078Z,100.00
2023-02-01T13:12:21.321Z,100.00
2023-02-01T13:14:55.387Z,99.68
2023-02-01T13:17:28.861Z,99.03
2023-02-01T13:20:02.215Z,98.39
2023-02-01T13:22:36.907Z,98.58
2023-02-01T13:25:15.323Z,97.10
2023-02-01T13:27:43.588Z,95.98
2023-02-01T13:30:21.100Z,95.15
2023-02-01T13:33:53.974Z,93.34
2023-02-01T13:36:28.987Z,93.95
2023-02-01T13:39:37.510Z,91.93
2023-02-01T13:42:18.279Z,90.80
2023-02-01T13:44:50.731Z,90.57
2023-02-01T13:47:27.918Z,90.58
2023-02-01T13:49:59.672Z,91.21
2023-02-01T13:52:34.944Z,91.56
2023-02-01T13:55:28.242Z,92.94
2023-02-01T13:58:17.292Z,91.92
2023-02-01T14:00:46.672Z,91.39
2023-02-01T14:03:45.375Z,90.54
2023-02-01T14:06:43.245Z,91.25
2023-02-01T14:09:38.190Z,90.43
2023-02-01T14:12:49.384Z,91.60
2023-02-01T14:15:27.899Z,90.51
2023-02-01T14:17:57.127Z,90.33
2023-02-01T14:20:51.943Z,89.26
2023-02-01T14:23:25.320Z,89.67
2023-02-01T14:26:20.768Z,90.16
2023-02-01T14:28:56.464Z,88.20
2023-02-01T14:31:45.757Z,88.13
2023-02-01T14:34:34.000Z,87.92
2023-02-01T14:37:07.042Z,88.95
2023-02-01T14:39:51.897Z,88.65
2023-02-01T14:42:27.953Z,89.16
2023-02-01T14:45:19.473Z,89.40
2023-02-01T14:47:50.242Z,88.55
2023-02-01T14:50:30.233Z,88.33
2023-02-01T14:53:21.411Z,87.29
2023-02-01T14:55:53.901Z,87.24
2023-02-01T14:58:37.739Z,86.82
2023-02-01T15:01:18.762Z,88.63
2023-02-01T15:04:02.793Z,88.77
2023-02-01T15:06:38.356Z,88.50
2023-02-01T15:09:12.832Z,89.77
2023-02-01T15:12:03.487Z,89.40
2023-02-01T15:14:34.749Z,90.54
2023-02-01T15:17:03.435Z,90.11
2023-02-01T15:19:32.993Z,90.81
2023-02-01T15:22:04.232Z,91.02
2023-02-01T15:24:33.575Z,89.14
2023-02-01T15:27:07.270Z,88.67
2023-02-01T15:29:37.468Z,88.30
2023-02-01T15:32:07.133Z,88.76
2023-02-01T15:34:53.479Z,88.33
2023-02-01T15:37:24.097Z,87.62
2023-02-01T15:40:22.932Z,88.01
2023-02-01T15:42:55.254Z,87.89
2023-02-01T15:45:27.545Z,88.81
2023-02-01T15:47:58.603Z,87.96
2023-02-01T15:50:36.220Z,89.06
2023-02-01T15:53:06.089Z,88.52
2023-02-01T15:55:42.977Z,89.20
2023-02-01T15:58:20.041Z,88.21
2023-02-01T16:00:52.170Z,89.54
2023-02-01T16:03:36.538Z,88.77
2023-02-01T16:06:12.908Z,88.92
2023-02-01T16:08:53.528Z,89.27
2023-02-01T16:11:31.394Z,88.76
2023-02-01T16:13:59.942Z,89.10
2023-02-01T16:16:29.935Z,89.80
2023-02-01T16:19:00.032Z,89.21
2023-02-01T16:21:29.877Z,90.46
2023-02-01T16:23:58.420Z,88.96
2023-02-01T16:26:26.771Z,89.51
2023-02-01T16:28:55.028Z,89.88
2023-02-01T16:31:30.644Z,89.92
2023-02-01T16:34:02.575Z,89.80
2023-02-01T16:36:32.230Z,89.01
2023-02-01T16:39:03.859Z,89.34
2023-02-01T16:41:33.963Z,89.50
2023-02-01T16:44:02.149Z,89.18
2023-02-01T16:46:37.543Z,89.86
2023-02-01T16:49:05.760Z,89.24
2023-02-01T16:51:36.022Z,88.83
2023-02-01T16:54:05.594Z,89.49
2023-02-01T16:56:36.695Z,89.44
2023-02-01T16:59:15.226Z,88.02
2023-02-01T17:01:44.056Z,88.72
2023-02-01T17:04:17.562Z,89.25
2023-02-01T17:06:51.157Z,88.21
2023-02-01T17:09:19.473Z,88.97
2023-02-01T17:11:48.090Z,88.94
2023-02-01T17:14:19.227Z,89.01
2023-02-01T17:16:50.340Z,89.18
2023-02-01T17:19:24.386Z,88.57
2023-02-01T17:21:56.784Z,89.06
2023-02-01T17:24:35.882Z,89.33
2023-02-01T17:27:10.853Z,88.45
2023-02-01T17:29:39.081Z,88.58
2023-02-01T17:32:07.472Z,87.95
2023-02-01T17:34:35.733Z,88.38
2023-02-01T17:37:24.442Z,88.63
2023-02-01T17:39:58.576Z,89.16
2023-02-01T17:42:29.689Z,87.81
2023-02-01T17:45:01.482Z,87.98
2023-02-01T17:47:30.195Z,87.56
2023-02-01T17:49:58.424Z,88.27
2023-02-01T17:52:29.167Z,88.28
2023-02-01T17:54:57.717Z,87.83
2023-02-01T17:57:25.931Z,87.92
2023-02-01T17:59:54.123Z,89.06
2023-02-01T18:02:25.636Z,88.57
2023-02-01T18:04:53.966Z,88.14
2023-02-01T18:07:22.161Z,88.14
2023-02-01T18:09:51.695Z,89.09
2023-02-01T18:12:22.478Z,88.36
2023-02-01T18:14:50.779Z,88.01
2023-02-01T18:17:18.927Z,87.73
2023-02-01T18:19:47.154Z,88.26
2023-02-01T18:22:20.480Z,89.92
2023-02-01T18:24:48.710Z,89.73
2023-02-01T18:27:18.236Z,89.42
2023-02-01T18:29:46.452Z,88.66
2023-02-01T18:32:14.653Z,87.83
2023-02-01T18:34:42.892Z,87.60
2023-02-01T18:37:11.102Z,86.94
2023-02-01T18:39:39.529Z,88.12
2023-02-01T18:42:07.728Z,88.14
2023-02-01T18:44:39.247Z,87.40
2023-02-01T18:47:07.434Z,87.08
2023-02-01T18:49:37.510Z,86.59
2023-02-01T18:52:07.034Z,87.54
2023-02-01T18:54:35.221Z,86.72
2023-02-01T18:57:03.418Z,86.37
2023-02-01T18:59:31.631Z,86.38
2023-02-01T19:02:03.127Z,86.35
2023-02-01T19:04:31.451Z,87.37
2023-02-01T19:07:01.420Z,85.79
2023-02-01T19:09:35.303Z,87.20
2023-02-01T19:12:04.911Z,85.84
2023-02-01T19:14:33.288Z,86.12
2023-02-01T19:17:02.874Z,85.43
2023-02-01T19:19:31.072Z,86.50
2023-02-01T19:21:59.867Z,85.59
2023-02-01T19:24:29.689Z,85.99
2023-02-01T19:26:58.126Z,86.12
2023-02-01T19:29:26.415Z,85.83
2023-02-01T19:31:54.802Z,85.77
2023-02-01T19:34:24.563Z,85.89
2023-02-01T19:36:54.607Z,84.56
2023-02-01T19:39:25.045Z,85.39
2023-02-01T19:41:53.517Z,84.49
2023-02-01T19:44:21.893Z,85.69
2023-02-01T19:46:50.107Z,85.45
2023-02-01T19:49:18.339Z,85.53
2023-02-01T19:51:48.701Z,85.43
2023-02-01T19:54:17.746Z,86.43
2023-02-01T19:56:47.726Z,85.50
2023-02-01T19:59:16.522Z,87.10
2023-02-01T20:01:46.521Z,86.30
2023-02-01T20:04:15.613Z,86.97
2023-02-01T20:06:48.932Z,86.39
2023-02-01T20:09:18.782Z,86.92
2023-02-01T20:11:47.086Z,88.18
2023-02-01T20:14:15.967Z,87.47
2023-02-01T20:16:44.928Z,87.08
2023-02-01T20:19:13.658Z,88.15
2023-02-01T20:21:42.758Z,88.48
2023-02-01T20:24:16.866Z,88.19
2023-02-01T20:26:47.003Z,88.09
2023-02-01T20:29:15.181Z,88.65
2023-02-01T20:31:45.058Z,88.35
2023-02-01T20:34:14.377Z,87.04
2023-02-01T20:36:42.570Z,88.29
2023-02-01T20:39:11.561Z,87.65
2023-02-01T20:41:41.109Z,88.13
2023-02-01T20:44:09.328Z,87.04
2023-02-01T20:46:37.529Z,87.71
2023-02-01T20:49:05.847Z,87.66
2023-02-01T20:51:34.041Z,87.31
2023-02-01T20:54:02.266Z,87.60
2023-02-01T20:56:30.488Z,87.28
2023-02-01T20:59:03.375Z,87.27
2023-02-01T21:01:31.837Z,87.56
2023-02-01T21:04:00.418Z,86.92
2023-02-01T21:06:28.664Z,86.70
2023-02-01T21:08:56.815Z,88.06
2023-02-01T21:11:24.976Z,87.14
2023-02-01T21:13:53.147Z,87.62
2023-02-01T21:16:23.426Z,88.01
2023-02-01T21:18:53.699Z,88.34
2023-02-01T21:21:22.395Z,87.49
2023-02-01T21:23:52.794Z,87.09
2023-02-01T21:26:23.998Z,88.18
2023-02-01T21:28:54.902Z,87.62
2023-02-01T21:31:25.849Z,87.94
2023-02-01T21:33:54.472Z,88.52
2023-02-01T21:36:22.684Z,87.77
2023-02-01T21:38:54.434Z,87.87
2023-02-01T21:41:43.292Z,89.49
2023-02-01T21:44:14.574Z,88.83
2023-02-01T21:46:44.537Z,89.08
2023-02-01T21:49:13.183Z,89.08
2023-02-01T21:51:41.902Z,90.23
2023-02-01T21:54:12.086Z,90.61
2023-02-01T21:56:41.767Z,91.33
2023-02-01T21:59:11.343Z,89.90
2023-02-01T22:01:40.790Z,89.85
2023-02-01T22:04:11.099Z,91.01
2023-02-01T22:06:42.289Z,91.13
2023-02-01T22:09:20.773Z,91.93
2023-02-01T22:11:50.021Z,92.14
2023-02-01T22:14:19.014Z,91.90
2023-02-01T22:16:47.970Z,92.07
2023-02-01T22:19:17.556Z,91.52
2023-02-01T22:21:47.996Z,90.70
2023-02-01T22:24:18.369Z,92.54
2023-02-01T22:26:46.564Z,91.26
2023-02-01T22:29:14.986Z,91.21
2023-02-01T22:31:43.637Z,91.03
2023-02-01T22:34:12.766Z,91.11
2023-02-01T22:36:42.975Z,90.20
2023-02-01T22:39:11.771Z,90.99
2023-02-01T22:41:40.029Z,90.17
2023-02-01T22:44:08.571Z,90.91
2023-02-01T22:46:36.804Z,90.28
2023-02-01T22:49:05.772Z,90.98
2023-02-01T22:51:34.450Z,90.16
2023-02-01T22:54:04.591Z,90.85
2023-02-01T22:56:35.856Z,90.92
2023-02-01T22:59:08.350Z,90.65
2023-02-01T23:01:36.914Z,91.31
2023-02-01T23:04:17.010Z,91.00
2023-02-01T23:06:51.363Z,90.95
2023-02-01T23:09:25.755Z,91.09
2023-02-01T23:11:55.508Z,90.96
2023-02-01T23:14:23.868Z,91.70
2023-02-01T23:16:52.264Z,92.01
2023-02-01T23:19:20.626Z,90.66
2023-02-01T23:21:49.606Z,91.07
2023-02-01T23:24:18.096Z,92.67
2023-02-01T23:26:47.670Z,92.37
2023-02-01T23:29:19.384Z,94.05
2023-02-01T23:31:47.665Z,95.08
2023-02-01T23:34:16.221Z,95.20
2023-02-01T23:36:44.452Z,95.86
2023-02-01T23:39:12.903Z,96.08
2023-02-01T23:41:41.116Z,96.31
2023-02-01T23:44:11.059Z,97.12
2023-02-01T23:46:44.472Z,97.54
2023-02-01T23:49:12.860Z,99.41
2023-02-01T23:51:41.934Z,100.00
2023-02-01T23:54:12.487Z,100.00
2023-02-01T23:56:43.112Z,100.00
2023-02-01T23:59:15.204Z,100.00
